Time;durP1;ratioP1;P1;durP2;ratioP2;P2;SDS_P1;SDS_P2;PMS_P1;PMS_P2;Temp;Humidity;BMP_temperature;BMP_pressure;BME280_temperature;BME280_humidity;BME280_pressure;Samples;Min_cycle;Max_cycle;Signal;HPM_P1;HPM_P2
2024/01/28 00:00:11;;;;;;;;;;;;;;;-1.35;100.00;102885.13;4895484;29;19940;-75
2024/01/28 00:02:36;;;;;;;;;;;;;;;-1.30;100.00;102878.69;4888569;29;19960;-75
2024/01/28 00:05:01;;;;;;;;;;;;;;;-1.28;100.00;102874.19;4893366;29;19923;-74
2024/01/28 00:07:27;;;;;;;;;;;;;;;-1.21;100.00;102877.41;4896256;29;19971;-75
2024/01/28 00:09:52;;;;;;;;;;;;;;;-1.28;100.00;102865.44;4892563;29;19923;-75
2024/01/28 00:12:17;;;;;;;;;;;;;;;-1.29;100.00;102861.06;4889819;29;20039;-74
2024/01/28 00:14:42;;;;;;;;;;;;;;;-1.23;100.00;102859.00;4887894;29;19935;-75
2024/01/28 00:17:07;;;;;;;;;;;;;;;-1.05;100.00;102845.00;4892546;29;19923;-75
2024/01/28 00:19:33;;;;;;;;;;;;;;;-1.04;100.00;102847.59;4889411;29;19931;-75
2024/01/28 00:21:58;;;;;;;;;;;;;;;-1.11;100.00;102839.09;4891701;29;19928;-75
2024/01/28 00:24:23;;;;;;;;;;;;;;;-1.09;100.00;102845.16;4895166;29;19931;-74
2024/01/28 00:26:49;;;;;;;;;;;;;;;-1.12;100.00;102850.59;4892367;29;20410;-75
2024/01/28 00:29:14;;;;;;;;;;;;;;;-1.32;100.00;102848.84;4876970;29;19931;-75
2024/01/28 00:31:39;;;;;;;;;;;;;;;-1.39;100.00;102853.53;4894417;29;19981;-74
2024/01/28 00:34:05;;;;;;;;;;;;;;;-1.45;100.00;102853.84;4895223;29;19959;-74
2024/01/28 00:36:30;;;;;;;;;;;;;;;-1.48;100.00;102855.75;4896024;29;19972;-74
2024/01/28 00:38:55;;;;;;;;;;;;;;;-1.50;100.00;102858.47;4894288;29;20340;-75
2024/01/28 00:41:26;;;;;;;;;;;;;;;-1.53;100.00;102862.09;4894223;29;19928;-75
2024/01/28 00:43:52;;;;;;;;;;;;;;;-1.49;100.00;102857.53;4895957;29;20014;-74
2024/01/28 00:46:17;;;;;;;;;;;;;;;-1.44;100.00;102857.31;4890405;29;19931;-75
2024/01/28 00:48:42;;;;;;;;;;;;;;;-1.40;100.00;102856.25;4893454;29;19959;-75
2024/01/28 00:51:07;;;;;;;;;;;;;;;-1.37;100.00;102856.97;4892605;29;19934;-75
2024/01/28 00:53:33;;;;;;;;;;;;;;;-1.38;100.00;102849.13;4893795;29;19927;-74
2024/01/28 00:55:58;;;;;;;;;;;;;;;-1.38;100.00;102849.97;4893398;29;19919;-74
2024/01/28 00:58:23;;;;;;;;;;;;;;;-1.39;100.00;102842.97;4889971;29;19923;-74
2024/01/28 01:00:49;;;;;;;;;;;;;;;-1.42;100.00;102851.06;4885976;29;19983;-75
2024/01/28 01:03:14;;;;;;;;;;;;;;;-1.51;100.00;102843.53;4894076;29;19970;-74
2024/01/28 01:05:41;;;;;;;;;;;;;;;-1.56;100.00;102838.47;4893343;29;19966;-75
2024/01/28 01:08:07;;;;;;;;;;;;;;;-1.56;100.00;102834.94;4890644;29;20247;-73
2024/01/28 01:10:32;;;;;;;;;;;;;;;-1.51;100.00;102827.69;4893797;29;20610;-73
2024/01/28 01:12:57;;;;;;;;;;;;;;;-1.57;100.00;102828.81;4888725;29;19931;-74
2024/01/28 01:15:22;;;;;;;;;;;;;;;-1.61;100.00;102821.13;4887929;29;20002;-74
2024/01/28 01:17:50;;;;;;;;;;;;;;;-1.57;100.00;102823.53;4889624;29;19980;-73
2024/01/28 01:20:17;;;;;;;;;;;;;;;-1.50;100.00;102818.84;4891522;29;20074;-74
2024/01/28 01:22:42;;;;;;;;;;;;;;;-1.47;100.00;102816.06;4894803;29;19928;-74
2024/01/28 01:25:08;;;;;;;;;;;;;;;-1.35;100.00;102816.41;4886874;29;19942;-73
2024/01/28 01:27:33;;;;;;;;;;;;;;;-1.28;100.00;102802.00;4892820;29;19932;-73
2024/01/28 01:29:58;;;;;;;;;;;;;;;-1.25;100.00;102801.88;4892545;29;19931;-73
2024/01/28 01:32:23;;;;;;;;;;;;;;;-1.15;100.00;102802.31;4892856;29;19930;-74
2024/01/28 01:34:49;;;;;;;;;;;;;;;-1.14;100.00;102802.22;4892781;29;19927;-73
2024/01/28 01:37:14;;;;;;;;;;;;;;;-1.05;100.00;102802.69;4890962;29;20125;-73
2024/01/28 01:39:39;;;;;;;;;;;;;;;-1.02;100.00;102802.56;4890861;29;19942;-73
2024/01/28 01:42:04;;;;;;;;;;;;;;;-1.00;100.00;102806.00;4888970;29;19951;-73
2024/01/28 01:44:29;;;;;;;;;;;;;;;-1.03;100.00;102801.72;4891142;29;20019;-73
2024/01/28 01:46:55;;;;;;;;;;;;;;;-1.09;100.00;102797.59;4870418;29;19978;-73
2024/01/28 01:49:20;;;;;;;;;;;;;;;-1.10;100.00;102795.88;4892927;29;19981;-74
2024/01/28 01:51:45;;;;;;;;;;;;;;;-1.05;100.00;102800.94;4885362;29;19935;-74
2024/01/28 01:54:10;;;;;;;;;;;;;;;-1.00;100.00;102800.72;4893258;29;19923;-74
2024/01/28 01:56:36;;;;;;;;;;;;;;;-1.00;100.00;102798.94;4889304;29;19950;-73
2024/01/28 01:59:04;;;;;;;;;;;;;;;-1.01;100.00;102804.28;4870162;29;20006;-73
2024/01/28 02:01:29;;;;;;;;;;;;;;;-1.08;100.00;102804.59;4893525;29;19927;-73
2024/01/28 02:03:57;;;;;;;;;;;;;;;-1.12;100.00;102796.84;4892637;29;20296;-73
2024/01/28 02:06:22;;;;;;;;;;;;;;;-1.18;100.00;102797.16;4888827;29;19923;-73
2024/01/28 02:08:47;;;;;;;;;;;;;;;-1.25;100.00;102805.38;4891443;29;19935;-73
2024/01/28 02:11:13;;;;;;;;;;;;;;;-1.30;100.00;102801.22;4893881;29;19927;-73
2024/01/28 02:13:38;;;;;;;;;;;;;;;-1.35;100.00;102796.16;4893020;29;19939;-73
2024/01/28 02:16:03;;;;;;;;;;;;;;;-1.37;100.00;102798.00;4889965;29;20389;-73
2024/01/28 02:18:29;;;;;;;;;;;;;;;-1.46;100.00;102799.28;4882183;29;20355;-73
2024/01/28 02:20:54;;;;;;;;;;;;;;;-1.56;100.00;102792.69;4887087;29;19927;-75
2024/01/28 02:23:21;;;;;;;;;;;;;;;-1.64;100.00;102785.13;4895411;29;19927;-75
2024/01/28 02:25:46;;;;;;;;;;;;;;;-1.74;100.00;102789.09;4892781;29;19946;-73
2024/01/28 02:28:11;;;;;;;;;;;;;;;-1.81;100.00;102785.88;4896747;29;20357;-73
2024/01/28 02:30:36;;;;;;;;;;;;;;;-1.95;100.00;102785.63;4897043;29;19927;-73
2024/01/28 02:33:02;;;;;;;;;;;;;;;-2.07;100.00;102785.22;4896406;29;19930;-73
2024/01/28 02:35:27;;;;;;;;;;;;;;;-2.17;100.00;102786.56;4881870;29;19923;-73
2024/01/28 02:37:52;;;;;;;;;;;;;;;-2.25;100.00;102773.69;4892422;29;19931;-73
2024/01/28 02:40:18;;;;;;;;;;;;;;;-2.21;100.00;102769.13;4896536;29;19966;-73
2024/01/28 02:42:43;;;;;;;;;;;;;;;-2.22;100.00;102767.41;4896936;29;19955;-73
2024/01/28 02:45:08;;;;;;;;;;;;;;;-2.22;100.00;102765.66;4895766;29;19919;-72
2024/01/28 02:47:34;;;;;;;;;;;;;;;-2.09;100.00;102760.69;4896176;29;19927;-73
2024/01/28 02:49:59;;;;;;;;;;;;;;;-2.06;100.00;102765.81;4898244;29;20022;-74
2024/01/28 02:52:24;;;;;;;;;;;;;;;-2.07;100.00;102756.19;4895116;29;19999;-74
2024/01/28 02:54:49;;;;;;;;;;;;;;;-2.03;100.00;102759.56;4896751;29;19934;-74
2024/01/28 02:57:15;;;;;;;;;;;;;;;-2.03;100.00;102757.78;4896293;29;19923;-74
2024/01/28 02:59:40;;;;;;;;;;;;;;;-2.10;100.00;102761.59;4895767;29;20332;-74
2024/01/28 03:02:05;;;;;;;;;;;;;;;-2.20;100.00;102760.28;4895528;29;20273;-74
2024/01/28 03:04:35;;;;;;;;;;;;;;;-2.26;100.00;102750.88;4897663;29;20333;-73
2024/01/28 03:07:01;;;;;;;;;;;;;;;-2.34;100.00;102750.31;4892307;29;19979;-73
2024/01/28 03:09:26;;;;;;;;;;;;;;;-2.39;100.00;102744.41;4896372;29;19931;-73
2024/01/28 03:11:51;;;;;;;;;;;;;;;-2.42;100.00;102744.53;4896128;29;20862;-73
2024/01/28 03:14:16;;;;;;;;;;;;;;;-2.36;100.00;102745.13;4895615;29;20303;-73
2024/01/28 03:16:42;;;;;;;;;;;;;;;-2.31;100.00;102745.81;4894940;29;19932;-73
2024/01/28 03:19:07;;;;;;;;;;;;;;;-2.32;100.00;102744.09;4896947;29;19931;-73
2024/01/28 03:21:32;;;;;;;;;;;;;;;-2.25;100.00;102746.44;4894931;29;19923;-73
2024/01/28 03:23:57;;;;;;;;;;;;;;;-2.26;100.00;102734.16;4896657;29;19926;-73
2024/01/28 03:26:23;;;;;;;;;;;;;;;-2.26;100.00;102734.16;4892004;29;20395;-73
2024/01/28 03:28:48;;;;;;;;;;;;;;;-2.34;100.00;102727.47;4888423;29;20356;-73
2024/01/28 03:31:13;;;;;;;;;;;;;;;-2.26;100.00;102728.88;4895223;29;20038;-73
2024/01/28 03:33:38;;;;;;;;;;;;;;;-2.25;100.00;102728.84;4892324;29;19974;-74
2024/01/28 03:36:04;;;;;;;;;;;;;;;-2.18;100.00;102725.00;4890881;29;19951;-74
2024/01/28 03:38:29;;;;;;;;;;;;;;;-2.15;100.00;102713.47;4889654;29;19967;-74
2024/01/28 03:40:54;;;;;;;;;;;;;;;-2.03;100.00;102709.44;4890468;29;19933;-74
2024/01/28 03:43:19;;;;;;;;;;;;;;;-2.01;100.00;102702.28;4890184;29;19931;-74
2024/01/28 03:45:45;;;;;;;;;;;;;;;-1.95;100.00;102704.66;4893227;29;19928;-73
2024/01/28 03:48:10;;;;;;;;;;;;;;;-1.90;100.00;102721.16;4888904;29;20333;-74
2024/01/28 03:50:35;;;;;;;;;;;;;;;-1.90;100.00;102710.59;4895163;29;20485;-73
2024/01/28 03:53:00;;;;;;;;;;;;;;;-1.92;100.00;102706.28;4893362;29;20356;-74
2024/01/28 03:55:26;;;;;;;;;;;;;;;-1.95;100.00;102709.09;4891686;29;20685;-73
2024/01/28 03:57:51;;;;;;;;;;;;;;;-2.06;100.00;102706.94;4885781;29;20381;-74
2024/01/28 04:00:18;;;;;;;;;;;;;;;-2.21;100.00;102700.53;4887597;29;19939;-74
2024/01/28 04:02:43;;;;;;;;;;;;;;;-2.29;100.00;102704.34;4888692;29;19930;-74
2024/01/28 04:05:08;;;;;;;;;;;;;;;-2.39;100.00;102704.84;4885388;29;19928;-74
2024/01/28 04:07:34;;;;;;;;;;;;;;;-2.46;100.00;102694.56;4887575;29;19939;-74
2024/01/28 04:09:59;;;;;;;;;;;;;;;-2.54;100.00;102696.66;4871124;29;20014;-74
2024/01/28 04:12:24;;;;;;;;;;;;;;;-2.53;100.00;102694.88;4888687;29;19971;-74
2024/01/28 04:14:49;;;;;;;;;;;;;;;-2.51;100.00;102699.16;4894345;29;19971;-74
2024/01/28 04:17:15;;;;;;;;;;;;;;;-2.50;100.00;102697.38;4885616;29;19991;-74
2024/01/28 04:19:40;;;;;;;;;;;;;;;-2.54;100.00;102699.28;4885863;29;19923;-74
2024/01/28 04:22:09;;;;;;;;;;;;;;;-2.57;100.00;102703.84;4884005;29;19924;-74
2024/01/28 04:24:35;;;;;;;;;;;;;;;-2.63;100.00;102697.88;4884977;29;20381;-73
2024/01/28 04:27:00;;;;;;;;;;;;;;;-2.71;100.00;102691.22;4884600;29;20058;-73
2024/01/28 04:29:25;;;;;;;;;;;;;;;-2.81;100.00;102685.47;4884213;29;20018;-73
2024/01/28 04:31:50;;;;;;;;;;;;;;;-2.94;100.00;102691.25;4887105;29;19969;-73
2024/01/28 04:34:15;;;;;;;;;;;;;;;-3.08;100.00;102680.44;4892333;29;19924;-73
2024/01/28 04:36:41;;;;;;;;;;;;;;;-3.18;100.00;102681.75;4890715;29;19931;-74
2024/01/28 04:39:07;;;;;;;;;;;;;;;-3.27;100.00;102675.06;4884175;29;20424;-75
2024/01/28 04:41:32;;;;;;;;;;;;;;;-3.25;100.00;102673.19;4890171;29;19924;-74
2024/01/28 04:43:57;;;;;;;;;;;;;;;-3.28;100.00;102676.81;4891309;29;20440;-74
2024/01/28 04:46:23;;;;;;;;;;;;;;;-3.36;100.00;102681.56;4891297;29;20378;-74
2024/01/28 04:48:49;;;;;;;;;;;;;;;-3.41;100.00;102672.97;4892891;29;19958;-73
2024/01/28 04:51:14;;;;;;;;;;;;;;;-3.46;100.00;102665.25;4885226;29;19986;-73
2024/01/28 04:53:39;;;;;;;;;;;;;;;-3.50;100.00;102661.88;4888713;29;19961;-73
2024/01/28 04:56:04;;;;;;;;;;;;;;;-3.53;100.00;102663.78;4892929;29;19935;-73
2024/01/28 04:58:30;;;;;;;;;;;;;;;-3.54;100.00;102665.56;4886220;29;19924;-73
2024/01/28 05:00:55;;;;;;;;;;;;;;;-3.52;100.00;102663.69;4887207;29;19994;-73
2024/01/28 05:03:20;;;;;;;;;;;;;;;-3.60;100.00;102660.53;4891283;29;19959;-73
2024/01/28 05:05:45;;;;;;;;;;;;;;;-3.68;100.00;102663.47;4888246;29;19962;-72
2024/01/28 05:08:11;;;;;;;;;;;;;;;-3.76;100.00;102639.19;4891666;29;20375;-72
2024/01/28 05:10:36;;;;;;;;;;;;;;;-3.77;100.00;102639.25;4892986;29;20398;-72
2024/01/28 05:13:01;;;;;;;;;;;;;;;-3.84;100.00;102652.63;4886769;29;20416;-71
2024/01/28 05:15:26;;;;;;;;;;;;;;;-3.95;100.00;102639.03;4883819;29;19924;-72
2024/01/28 05:17:52;;;;;;;;;;;;;;;-4.02;100.00;102641.06;4891358;29;19979;-71
2024/01/28 05:20:17;;;;;;;;;;;;;;;-4.11;100.00;102639.63;4888031;29;19924;-71
2024/01/28 05:22:43;;;;;;;;;;;;;;;-4.19;100.00;102635.56;4890805;29;19942;-71
2024/01/28 05:25:09;;;;;;;;;;;;;;;-4.19;100.00;102633.78;4890760;29;19943;-71
2024/01/28 05:27:34;;;;;;;;;;;;;;;-4.23;100.00;102619.00;4888551;29;19923;-71
2024/01/28 05:29:59;;;;;;;;;;;;;;;-4.29;100.00;102614.84;4888707;29;19939;-73
2024/01/28 05:32:25;;;;;;;;;;;;;;;-4.31;100.00;102621.09;4885195;29;20071;-73
2024/01/28 05:34:50;;;;;;;;;;;;;;;-4.16;100.00;102620.50;4891250;29;19931;-71
2024/01/28 05:37:16;;;;;;;;;;;;;;;-3.99;100.00;102616.41;4893701;29;19927;-71
2024/01/28 05:39:41;;;;;;;;;;;;;;;-4.03;100.00;102620.03;4890441;29;19954;-71
2024/01/28 05:42:06;;;;;;;;;;;;;;;-4.16;100.00;102607.38;4892148;29;20030;-71
2024/01/28 05:44:32;;;;;;;;;;;;;;;-4.30;100.00;102613.13;4892763;29;19927;-71
2024/01/28 05:46:57;;;;;;;;;;;;;;;-4.43;100.00;102617.13;4887473;29;20018;-71
2024/01/28 05:49:22;;;;;;;;;;;;;;;-4.55;100.00;102623.66;4892926;29;19938;-71
2024/01/28 05:51:47;;;;;;;;;;;;;;;-4.67;100.00;102629.38;4893145;29;19923;-71
2024/01/28 05:54:13;;;;;;;;;;;;;;;-4.74;100.00;102624.31;4892262;29;20304;-71
2024/01/28 05:56:38;;;;;;;;;;;;;;;-4.76;100.00;102614.78;4888803;29;20299;-71
2024/01/28 05:59:03;;;;;;;;;;;;;;;-4.76;100.00;102610.38;4893041;29;20276;-71
2024/01/28 06:01:28;;;;;;;;;;;;;;;-4.75;100.00;102617.34;4896681;29;19924;-72
2024/01/28 06:03:54;;;;;;;;;;;;;;;-4.77;100.00;102607.81;4896428;29;19979;-71
2024/01/28 06:06:19;;;;;;;;;;;;;;;-4.77;100.00;102602.56;4897570;29;19931;-72
2024/01/28 06:08:44;;;;;;;;;;;;;;;-4.82;100.00;102592.22;4895102;29;19980;-71
2024/01/28 06:11:09;;;;;;;;;;;;;;;-4.83;100.00;102600.13;4898498;29;19963;-72
2024/01/28 06:13:36;;;;;;;;;;;;;;;-4.82;100.00;102594.84;4896680;29;20063;-71
2024/01/28 06:16:01;;;;;;;;;;;;;;;-4.76;100.00;102596.38;4896593;29;20435;-71
2024/01/28 06:18:26;;;;;;;;;;;;;;;-4.80;100.00;102595.66;4895622;29;19927;-71
2024/01/28 06:20:52;;;;;;;;;;;;;;;-4.84;100.00;102598.41;4896033;29;19932;-71
2024/01/28 06:23:17;;;;;;;;;;;;;;;-4.83;100.00;102587.00;4896718;29;19930;-71
2024/01/28 06:25:42;;;;;;;;;;;;;;;-4.74;100.00;102584.91;4898491;29;19924;-71
2024/01/28 06:28:07;;;;;;;;;;;;;;;-4.64;100.00;102584.59;4896510;29;19927;-71
2024/01/28 06:30:33;;;;;;;;;;;;;;;-4.60;100.00;102575.69;4896031;29;19980;-74
2024/01/28 06:32:58;;;;;;;;;;;;;;;-4.69;100.00;102573.38;4893054;29;19924;-74
2024/01/28 06:35:24;;;;;;;;;;;;;;;-4.80;100.00;102569.38;4895284;29;19959;-73
2024/01/28 06:37:49;;;;;;;;;;;;;;;-4.86;100.00;102564.31;4894310;29;19965;-73
2024/01/28 06:40:14;;;;;;;;;;;;;;;-4.87;100.00;102562.59;4891501;29;19958;-73
2024/01/28 06:42:39;;;;;;;;;;;;;;;-4.87;100.00;102557.34;4895525;29;19986;-73
2024/01/28 06:45:07;;;;;;;;;;;;;;;-4.81;100.00;102554.53;4896427;29;20030;-73
2024/01/28 06:47:32;;;;;;;;;;;;;;;-4.67;100.00;102561.03;4894727;29;20400;-73
2024/01/28 06:49:58;;;;;;;;;;;;;;;-4.61;100.00;102555.56;4896101;29;20014;-73
2024/01/28 06:52:23;;;;;;;;;;;;;;;-4.53;100.00;102548.25;4894285;29;20064;-74
2024/01/28 06:54:48;;;;;;;;;;;;;;;-4.45;100.00;102540.97;4896441;29;20406;-73
2024/01/28 06:57:14;;;;;;;;;;;;;;;-4.38;100.00;102548.59;4895278;29;20388;-73
2024/01/28 06:59:41;;;;;;;;;;;;;;;-4.30;100.00;102541.28;4893475;29;20391;-73
2024/01/28 07:02:08;;;;;;;;;;;;;;;-4.18;100.00;102540.81;4891884;29;19934;-73
2024/01/28 07:04:33;;;;;;;;;;;;;;;-4.19;100.00;102539.09;4894899;29;19923;-73
2024/01/28 07:06:59;;;;;;;;;;;;;;;-4.14;100.00;102544.19;4895219;29;19928;-73
2024/01/28 07:09:24;;;;;;;;;;;;;;;-4.13;100.00;102543.25;4897351;29;20418;-73
2024/01/28 07:11:49;;;;;;;;;;;;;;;-4.09;100.00;102546.66;4895555;29;20292;-73
2024/01/28 07:14:17;;;;;;;;;;;;;;;-4.01;100.00;102547.19;4896986;29;19975;-74
2024/01/28 07:16:42;;;;;;;;;;;;;;;-4.06;100.00;102552.63;4896223;29;19931;-75
2024/01/28 07:19:07;;;;;;;;;;;;;;;-4.06;100.00;102543.91;4898278;29;19962;-73
2024/01/28 07:21:33;;;;;;;;;;;;;;;-4.09;100.00;102544.03;4896601;29;19969;-72
2024/01/28 07:23:58;;;;;;;;;;;;;;;-4.02;100.00;102548.09;4896888;29;19966;-73
2024/01/28 07:26:24;;;;;;;;;;;;;;;-4.04;100.00;102555.19;4896222;29;19966;-74
2024/01/28 07:28:50;;;;;;;;;;;;;;;-4.00;100.00;102549.78;4895762;29;19924;-73
2024/01/28 07:31:15;;;;;;;;;;;;;;;-3.96;100.00;102553.97;4895994;29;19928;-74
2024/01/28 07:33:40;;;;;;;;;;;;;;;-3.88;100.00;102551.06;4902639;29;19929;-74
2024/01/28 07:36:05;;;;;;;;;;;;;;;-3.75;100.00;102545.31;4895322;29;19924;-74
2024/01/28 07:38:32;;;;;;;;;;;;;;;-3.51;100.00;102549.56;4897387;29;20381;-73
2024/01/28 07:40:58;;;;;;;;;;;;;;;-2.86;100.00;102550.44;4895787;29;20631;-72
2024/01/28 07:43:24;;;;;;;;;;;;;;;-1.95;100.00;102554.22;4897157;29;20003;-71
2024/01/28 07:45:50;;;;;;;;;;;;;;;-1.04;100.00;102555.94;4906015;29;20353;-72
2024/01/28 07:48:16;;;;;;;;;;;;;;;-0.34;100.00;102550.53;4896608;29;20380;-71
2024/01/28 07:50:41;;;;;;;;;;;;;;;0.52;100.00;102551.97;4895395;29;20381;-72
2024/01/28 07:53:07;;;;;;;;;;;;;;;1.27;100.00;102557.25;4893141;29;19931;-73
2024/01/28 07:55:32;;;;;;;;;;;;;;;2.02;93.45;102552.63;4892102;29;19950;-74
2024/01/28 07:57:57;;;;;;;;;;;;;;;2.45;85.91;102565.81;4892860;29;19932;-73
2024/01/28 08:00:22;;;;;;;;;;;;;;;2.93;82.44;102564.44;4893796;29;19930;-74
2024/01/28 08:02:48;;;;;;;;;;;;;;;3.31;76.47;102560.94;4893460;29;20400;-74
2024/01/28 08:05:13;;;;;;;;;;;;;;;3.56;74.05;102565.41;4893946;29;20349;-75
2024/01/28 08:07:40;;;;;;;;;;;;;;;3.36;74.42;102569.44;4895245;29;20428;-74
2024/01/28 08:10:05;;;;;;;;;;;;;;;3.40;74.09;102572.75;4892617;29;20443;-72
2024/01/28 08:12:31;;;;;;;;;;;;;;;3.75;74.49;102567.59;4894098;29;19919;-75
2024/01/28 08:14:56;;;;;;;;;;;;;;;3.81;70.98;102571.63;4893721;29;20284;-74
2024/01/28 08:17:25;;;;;;;;;;;;;;;3.99;70.28;102557.94;4894892;29;19926;-75
2024/01/28 08:19:50;;;;;;;;;;;;;;;4.07;69.49;102556.44;4895982;29;19934;-74
2024/01/28 08:22:15;;;;;;;;;;;;;;;4.54;67.99;102561.03;4892683;29;19931;-75
2024/01/28 08:24:41;;;;;;;;;;;;;;;5.29;65.10;102570.47;4895112;29;20402;-75
2024/01/28 08:27:06;;;;;;;;;;;;;;;4.68;65.27;102560.84;4894564;29;19947;-75
2024/01/28 08:29:31;;;;;;;;;;;;;;;4.01;66.27;102559.56;4894361;29;19934;-75
2024/01/28 08:31:59;;;;;;;;;;;;;;;3.01;69.97;102562.09;4891393;29;20349;-76
2024/01/28 08:34:24;;;;;;;;;;;;;;;2.16;75.21;102554.41;4897757;29;19959;-74
2024/01/28 08:36:50;;;;;;;;;;;;;;;1.56;78.61;102551.97;4902012;29;19924;-74
2024/01/28 08:39:15;;;;;;;;;;;;;;;1.13;81.34;102551.91;4901813;29;19928;-74
2024/01/28 08:41:40;;;;;;;;;;;;;;;0.89;82.86;102542.69;4910256;29;19935;-74
2024/01/28 08:44:06;;;;;;;;;;;;;;;0.54;85.93;102542.09;4892275;29;19974;-74
2024/01/28 08:46:34;;;;;;;;;;;;;;;0.29;88.19;102541.72;4894149;29;19934;-74
2024/01/28 08:48:59;;;;;;;;;;;;;;;0.30;88.98;102535.50;4894206;29;19926;-73
2024/01/28 08:51:25;;;;;;;;;;;;;;;0.26;88.43;102533.97;4892708;29;19932;-74
2024/01/28 08:53:50;;;;;;;;;;;;;;;0.14;89.24;102534.66;4893058;29;19930;-73
2024/01/28 08:56:15;;;;;;;;;;;;;;;0.13;89.76;102528.53;4893774;29;19963;-73
2024/01/28 08:58:40;;;;;;;;;;;;;;;0.09;89.81;102528.78;4892850;29;20356;-73
2024/01/28 09:01:07;;;;;;;;;;;;;;;0.09;90.78;102520.84;4893485;29;20554;-73
2024/01/28 09:03:33;;;;;;;;;;;;;;;0.13;89.64;102523.22;4894146;29;20032;-74
2024/01/28 09:06:00;;;;;;;;;;;;;;;0.18;89.74;102522.97;4892038;29;20329;-74
2024/01/28 09:08:28;;;;;;;;;;;;;;;0.21;90.50;102520.13;4893748;29;19934;-74
2024/01/28 09:10:53;;;;;;;;;;;;;;;0.24;90.13;102519.97;4887710;29;19947;-74
2024/01/28 09:13:18;;;;;;;;;;;;;;;0.27;90.28;102526.88;4892583;29;19975;-74
2024/01/28 09:15:43;;;;;;;;;;;;;;;0.36;89.62;102515.72;4893284;29;19927;-74
2024/01/28 09:18:09;;;;;;;;;;;;;;;0.44;89.52;102513.50;4893208;29;19923;-73
2024/01/28 09:20:34;;;;;;;;;;;;;;;0.48;89.23;102515.97;4892520;29;19929;-74
2024/01/28 09:22:59;;;;;;;;;;;;;;;0.54;89.57;102505.00;4893939;29;19928;-74
2024/01/28 09:25:26;;;;;;;;;;;;;;;0.60;89.29;102502.88;4892429;29;19963;-74
2024/01/28 09:27:52;;;;;;;;;;;;;;;0.63;89.58;102509.78;4893259;29;20329;-74
2024/01/28 09:30:17;;;;;;;;;;;;;;;0.69;89.34;102509.44;4895226;29;19930;-74
2024/01/28 09:32:42;;;;;;;;;;;;;;;0.74;89.08;102510.00;4896967;29;19928;-73
2024/01/28 09:35:08;;;;;;;;;;;;;;;0.82;89.68;102521.94;4896966;29;19924;-74
2024/01/28 09:37:33;;;;;;;;;;;;;;;0.92;87.89;102523.09;4897451;29;19959;-74
2024/01/28 09:40:02;;;;;;;;;;;;;;;0.96;87.25;102516.66;4897012;29;19974;-73
2024/01/28 09:42:39;;;;;;;;;;;;;;;1.09;86.71;102518.56;4897201;29;20018;-74
2024/01/28 09:45:04;;;;;;;;;;;;;;;1.20;86.11;102524.09;4880284;29;20113;-73
2024/01/28 09:47:32;;;;;;;;;;;;;;;1.25;86.29;102516.69;4877692;29;20585;-73
2024/01/28 09:49:57;;;;;;;;;;;;;;;1.31;85.66;102520.78;4896316;29;20038;-73
2024/01/28 09:52:22;;;;;;;;;;;;;;;1.40;85.59;102508.75;4897128;29;20021;-73
2024/01/28 09:54:47;;;;;;;;;;;;;;;1.49;83.77;102513.47;4879856;29;19924;-73
2024/01/28 09:57:15;;;;;;;;;;;;;;;1.60;83.00;102508.31;4891007;29;19924;-73
2024/01/28 09:59:41;;;;;;;;;;;;;;;1.76;82.36;102516.19;4877849;29;19931;-72
2024/01/28 10:02:17;;;;;;;;;;;;;;;2.00;80.68;102514.69;4879748;29;20022;-73
2024/01/28 10:04:45;;;;;;;;;;;;;;;2.08;80.54;102521.22;4896144;29;19966;-73
2024/01/28 10:07:11;;;;;;;;;;;;;;;2.20;79.18;102522.22;4896325;29;19935;-73
2024/01/28 10:09:36;;;;;;;;;;;;;;;2.23;78.62;102516.72;4893649;29;19927;-73
2024/01/28 10:12:02;;;;;;;;;;;;;;;2.33;78.67;102516.09;4895559;29;20359;-73
2024/01/28 10:14:27;;;;;;;;;;;;;;;2.40;78.47;102518.25;4895586;29;20329;-73
2024/01/28 10:16:52;;;;;;;;;;;;;;;2.55;78.29;102511.06;4897648;29;19927;-73
2024/01/28 10:19:17;;;;;;;;;;;;;;;2.75;75.74;102508.88;4895684;29;20502;-72
2024/01/28 10:21:43;;;;;;;;;;;;;;;2.75;76.41;102506.22;4895683;29;20297;-73
2024/01/28 10:24:09;;;;;;;;;;;;;;;2.82;75.58;102506.63;4896828;29;20296;-75
2024/01/28 10:26:34;;;;;;;;;;;;;;;2.83;76.21;102498.53;4896578;29;19951;-73
2024/01/28 10:28:59;;;;;;;;;;;;;;;2.91;76.46;102503.38;4895406;29;19927;-73
2024/01/28 10:31:24;;;;;;;;;;;;;;;3.09;74.66;102492.41;4879793;29;19923;-73
2024/01/28 10:33:50;;;;;;;;;;;;;;;3.21;74.28;102494.19;4895844;29;20029;-73
2024/01/28 10:36:19;;;;;;;;;;;;;;;3.26;73.91;102492.06;4895417;29;20026;-73
2024/01/28 10:38:45;;;;;;;;;;;;;;;3.31;72.68;102489.06;4896041;29;19971;-75
2024/01/28 10:41:10;;;;;;;;;;;;;;;3.36;71.81;102480.75;4895606;29;19966;-75
2024/01/28 10:43:36;;;;;;;;;;;;;;;3.59;70.53;102481.78;4895039;29;20067;-73
2024/01/28 10:46:01;;;;;;;;;;;;;;;3.64;69.84;102476.97;4896632;29;20018;-74
2024/01/28 10:48:26;;;;;;;;;;;;;;;3.68;69.97;102478.47;4871852;29;19928;-74
2024/01/28 10:50:54;;;;;;;;;;;;;;;3.75;70.34;102468.19;4878531;29;20380;-74
2024/01/28 10:53:20;;;;;;;;;;;;;;;3.86;68.63;102470.09;4875858;29;19935;-75
2024/01/28 10:55:45;;;;;;;;;;;;;;;3.99;69.13;102460.22;4872645;29;19935;-75
2024/01/28 10:58:11;;;;;;;;;;;;;;;4.11;67.48;102463.78;4889384;29;19939;-75
2024/01/28 11:00:36;;;;;;;;;;;;;;;4.12;66.71;102461.97;4888924;29;19927;-75
2024/01/28 11:03:04;;;;;;;;;;;;;;;4.14;68.33;102462.69;4874549;29;19923;-74
2024/01/28 11:05:30;;;;;;;;;;;;;;;4.13;67.42;102458.34;4894287;29;19930;-74
2024/01/28 11:07:59;;;;;;;;;;;;;;;4.26;66.26;102448.44;4872452;29;20225;-74
2024/01/28 11:10:31;;;;;;;;;;;;;;;4.36;66.00;102444.13;4894964;29;19928;-74
2024/01/28 11:12:56;;;;;;;;;;;;;;;4.31;68.01;102435.63;4894557;29;20001;-74
2024/01/28 11:15:22;;;;;;;;;;;;;;;4.35;66.76;102436.22;4896057;29;20364;-75
2024/01/28 11:17:47;;;;;;;;;;;;;;;4.32;66.96;102434.66;4894549;29;20035;-75
2024/01/28 11:20:16;;;;;;;;;;;;;;;4.36;66.56;102428.13;4878127;29;19923;-75
2024/01/28 11:22:45;;;;;;;;;;;;;;;4.37;67.20;102429.84;4895298;29;19929;-75
2024/01/28 11:25:12;;;;;;;;;;;;;;;4.42;67.80;102426.81;4894679;29;19930;-78
2024/01/28 11:27:38;;;;;;;;;;;;;;;4.47;67.81;102423.78;4892614;29;19931;-77
2024/01/28 11:30:03;;;;;;;;;;;;;;;4.47;67.61;102419.31;4894044;29;19963;-75
2024/01/28 11:32:32;;;;;;;;;;;;;;;4.70;66.68;102414.88;4895435;29;19923;-77
2024/01/28 11:34:57;;;;;;;;;;;;;;;4.78;66.54;102411.59;4895444;29;19927;-78
2024/01/28 11:37:23;;;;;;;;;;;;;;;4.92;66.42;102415.84;4895891;29;19998;-77
2024/01/28 11:39:48;;;;;;;;;;;;;;;5.04;65.65;102406.00;4892794;29;19931;-77
2024/01/28 11:42:13;;;;;;;;;;;;;;;5.09;66.04;102400.31;4870614;29;19924;-75
2024/01/28 11:44:39;;;;;;;;;;;;;;;5.48;63.86;102406.06;4884220;29;19953;-76
2024/01/28 11:47:04;;;;;;;;;;;;;;;5.65;63.67;102407.38;4887448;29;19927;-76
2024/01/28 11:49:29;;;;;;;;;;;;;;;5.80;61.82;102409.75;4889650;29;20384;-76
2024/01/28 11:51:54;;;;;;;;;;;;;;;6.00;61.81;102408.16;4891975;29;20435;-76
2024/01/28 11:54:20;;;;;;;;;;;;;;;6.19;60.96;102415.47;4887595;29;20384;-77
2024/01/28 11:56:45;;;;;;;;;;;;;;;6.50;62.63;102416.41;4888972;29;20353;-76
2024/01/28 11:59:11;;;;;;;;;;;;;;;7.62;56.47;102406.66;4890442;29;20355;-75
2024/01/28 12:01:36;;;;;;;;;;;;;;;9.07;51.22;102410.28;4891553;29;19931;-76
2024/01/28 12:04:02;;;;;;;;;;;;;;;10.38;49.18;102415.31;4874482;29;20056;-77
2024/01/28 12:06:28;;;;;;;;;;;;;;;10.85;45.81;102421.34;4893411;29;19931;-76
2024/01/28 12:08:53;;;;;;;;;;;;;;;11.83;43.67;102414.56;4875393;29;20025;-76
2024/01/28 12:11:20;;;;;;;;;;;;;;;12.96;40.97;102407.56;4890687;29;20018;-76
2024/01/28 12:13:55;;;;;;;;;;;;;;;14.05;39.11;102420.31;5031608;28;20535;-75
2024/01/28 12:16:21;;;;;;;;;;;;;;;14.41;38.41;102421.53;5033944;28;19938;-76
2024/01/28 12:18:47;;;;;;;;;;;;;;;14.74;36.27;102414.97;5031394;28;19928;-75
2024/01/28 12:21:18;;;;;;;;;;;;;;;13.33;38.84;102410.63;5031348;28;19925;-75
2024/01/28 12:23:47;;;;;;;;;;;;;;;14.24;37.52;102410.03;5029209;28;19960;-76